Time;durP1;ratioP1;P1;durP2;ratioP2;P2;SDS_P1;SDS_P2;PMS_P1;PMS_P2;Temp;Humidity;BMP_temperature;BMP_pressure;BME280_temperature;BME280_humidity;BME280_pressure;Samples;Min_cycle;Max_cycle;Signal;HPM_P1;HPM_P2
2024/01/08 00:02:16;;;;;;;23.52;11.77;;;;;;;7.41;97.72;93646.28;5025254;28;20044;-79
2024/01/08 00:04:41;;;;;;;25.38;11.95;;;;;;;7.67;98.34;93698.31;5015864;28;20515;-79
2024/01/08 00:07:07;;;;;;;26.48;11.43;;;;;;;6.95;98.24;93599.59;5014889;28;20431;-79
2024/01/08 00:09:32;;;;;;;21.80;11.80;;;;;;;7.56;98.77;93706.69;5033916;28;20076;-79
2024/01/08 00:11:57;;;;;;;23.10;11.52;;;;;;;7.24;99.72;93663.47;5032879;28;20037;-79
2024/01/08 00:14:23;;;;;;;23.48;11.00;;;;;;;6.91;99.20;93619.69;5015726;28;20041;-79
2024/01/08 00:16:48;;;;;;;20.60;11.00;;;;;;;7.35;100.00;93669.31;5033290;28;20089;-79
2024/01/08 00:19:14;;;;;;;23.98;12.13;;;;;;;7.31;99.77;93648.03;5016061;28;20063;-79
2024/01/08 00:21:41;;;;;;;19.60;10.15;;;;;;;7.64;99.51;93714.72;5015659;28;20080;-79
2024/01/08 00:24:07;;;;;;;18.10;9.10;;;;;;;7.52;99.22;93695.94;5033350;28;20033;-79
2024/01/08 00:26:32;;;;;;;23.08;10.30;;;;;;;7.02;99.25;93607.16;5034327;28;20057;-80
2024/01/08 00:28:59;;;;;;;16.73;9.07;;;;;;;7.63;98.69;93691.25;5052659;28;20072;-80
2024/01/08 00:31:24;;;;;;;20.17;7.72;;;;;;;7.51;98.51;93675.91;5036676;28;20088;-80
2024/01/08 00:33:50;;;;;;;15.25;7.70;;;;;;;7.27;98.00;93647.03;5019485;28;20548;-80
2024/01/08 00:36:15;;;;;;;13.95;6.65;;;;;;;7.59;98.31;93685.00;5018926;28;20057;-80
2024/01/08 00:38:41;;;;;;;14.13;5.65;;;;;;;7.72;98.31;93718.56;5037303;28;20033;-80
2024/01/08 00:41:07;;;;;;;10.20;4.93;;;;;;;7.47;97.72;93709.22;5045953;28;20514;-80
2024/01/08 00:43:32;;;;;;;6.78;4.35;;;;;;;7.17;98.31;93663.00;5050918;28;20033;-81
2024/01/08 00:45:58;;;;;;;10.98;5.13;;;;;;;7.68;98.27;93726.28;5039705;28;20515;-80
2024/01/08 00:48:23;;;;;;;9.00;4.60;;;;;;;7.60;97.92;93703.19;5034408;28;20416;-80
2024/01/08 00:50:49;;;;;;;10.38;4.18;;;;;;;7.54;97.79;93717.56;5056411;28;20040;-81
2024/01/08 00:53:15;;;;;;;7.53;4.20;;;;;;;7.38;97.63;93705.69;5043094;28;20115;-80
2024/01/08 00:55:40;;;;;;;8.45;4.03;;;;;;;7.46;98.27;93734.03;5051192;28;20419;-80
2024/01/08 00:58:06;;;;;;;7.93;4.38;;;;;;;7.35;99.17;93722.06;5036075;28;20036;-80
2024/01/08 01:00:31;;;;;;;7.95;3.55;;;;;;;7.29;98.89;93717.94;5052595;28;20491;-80
2024/01/08 01:02:57;;;;;;;7.30;4.40;;;;;;;7.06;99.22;93677.44;5016262;28;20041;-80
2024/01/08 01:05:22;;;;;;;8.15;3.92;;;;;;;6.39;98.89;93571.50;5037632;28;20193;-80
2024/01/08 01:07:48;;;;;;;7.88;4.22;;;;;;;7.09;99.26;93684.78;5051006;28;20091;-80
2024/01/08 01:10:13;;;;;;;6.97;4.63;;;;;;;7.49;98.94;93745.84;5033809;28;20064;-80
2024/01/08 01:12:39;;;;;;;12.88;4.63;;;;;;;7.20;98.64;93690.66;5039732;28;20041;-80
2024/01/08 01:15:05;;;;;;;8.57;4.10;;;;;;;7.48;98.37;93725.81;5054395;28;20097;-80
2024/01/08 01:17:30;;;;;;;6.95;4.40;;;;;;;7.43;97.96;93710.88;5054225;28;20106;-79
2024/01/08 01:19:56;;;;;;;8.63;5.30;;;;;;;7.10;98.23;93698.72;5044144;28;20034;-79
2024/01/08 01:22:22;;;;;;;10.95;5.13;;;;;;;7.17;98.69;93713.09;5033485;28;20073;-80
2024/01/08 01:24:47;;;;;;;12.77;5.20;;;;;;;7.18;98.41;93724.44;5016857;28;20037;-80
2024/01/08 01:27:13;;;;;;;10.63;7.22;;;;;;;7.23;97.75;93762.09;5034141;28;20124;-80
2024/01/08 01:29:38;;;;;;;12.13;6.80;;;;;;;6.85;98.35;93708.59;5016831;28;20121;-80
2024/01/08 01:32:04;;;;;;;12.98;7.13;;;;;;;7.17;98.81;93757.94;5034029;28;20040;-80
2024/01/08 01:34:30;;;;;;;12.65;7.20;;;;;;;7.09;99.33;93758.59;5033720;28;20043;-80
2024/01/08 01:36:56;;;;;;;19.13;8.00;;;;;;;7.09;99.63;93766.50;5053571;28;20041;-80
2024/01/08 01:39:21;;;;;;;12.93;7.47;;;;;;;6.31;100.00;93643.22;5035924;28;20212;-80
2024/01/08 01:41:50;;;;;;;15.00;8.00;;;;;;;6.85;99.96;93721.00;5032792;28;20488;-80
2024/01/08 01:44:15;;;;;;;16.85;9.02;;;;;;;6.40;99.31;93677.63;5016454;28;20098;-79
2024/01/08 01:46:51;;;;;;;16.08;9.48;;;;;;;6.91;99.79;93765.44;5034443;28;20038;-80
2024/01/08 01:49:22;;;;;;;14.95;8.20;;;;;;;6.99;99.93;93766.66;5041516;28;20468;-80
2024/01/08 01:51:49;;;;;;;16.05;8.57;;;;;;;6.30;99.80;93688.25;5035468;28;20132;-80
2024/01/08 01:54:17;;;;;;;17.55;9.43;;;;;;;6.84;99.80;93764.22;5036282;28;20045;-80
2024/01/08 01:56:48;;;;;;;17.02;9.82;;;;;;;6.78;99.42;93768.78;5036647;28;20109;-79
2024/01/08 01:59:16;;;;;;;17.48;9.73;;;;;;;6.69;100.00;93774.94;5022768;28;20048;-80
2024/01/08 02:01:42;;;;;;;17.98;10.88;;;;;;;6.57;99.88;93746.38;5016928;28;20037;-79
2024/01/08 02:04:08;;;;;;;16.42;9.88;;;;;;;5.69;100.00;93633.69;5051312;28;20029;-79
2024/01/08 02:06:36;;;;;;;21.95;11.07;;;;;;;6.62;100.00;93777.16;5036826;28;20170;-80
2024/01/08 02:09:02;;;;;;;21.00;10.65;;;;;;;5.87;100.00;93661.13;5054478;28;20032;-80
2024/01/08 02:11:29;;;;;;;21.83;10.88;;;;;;;6.49;100.00;93753.06;5053851;28;20063;-81
2024/01/08 02:13:54;;;;;;;21.25;10.93;;;;;;;6.58;100.00;93785.59;5051741;28;20039;-80
2024/01/08 02:16:20;;;;;;;19.50;10.82;;;;;;;6.03;100.00;93702.00;5016228;28;20029;-80
2024/01/08 02:18:46;;;;;;;18.83;10.38;;;;;;;6.57;100.00;93780.59;5016236;28;20116;-80
2024/01/08 02:21:12;;;;;;;21.58;11.02;;;;;;;6.48;100.00;93788.38;5033469;28;20116;-80
2024/01/08 02:23:37;;;;;;;18.45;9.50;;;;;;;6.18;100.00;93741.31;5016616;28;20491;-80
2024/01/08 02:26:04;;;;;;;14.93;9.85;;;;;;;5.72;100.00;93675.22;5033835;28;20071;-80
2024/01/08 02:28:29;;;;;;;20.45;9.10;;;;;;;6.42;100.00;93797.38;5027096;28;20029;-79
2024/01/08 02:30:55;;;;;;;13.50;9.05;;;;;;;6.20;100.00;93752.34;5041490;28;20036;-79
2024/01/08 02:33:21;;;;;;;17.58;9.93;;;;;;;6.49;100.00;93786.50;5029011;28;20044;-79
2024/01/08 02:35:47;;;;;;;15.02;9.05;;;;;;;6.36;100.00;93780.06;5053733;28;20060;-78
2024/01/08 02:38:12;;;;;;;18.60;9.07;;;;;;;6.36;100.00;93777.44;5035561;28;20130;-79
2024/01/08 02:40:38;;;;;;;17.25;9.75;;;;;;;6.14;100.00;93737.69;5019936;28;20072;-80
2024/01/08 02:43:03;;;;;;;16.10;8.82;;;;;;;6.18;100.00;93744.72;5015692;28;20133;-80
2024/01/08 02:45:31;;;;;;;14.07;8.63;;;;;;;5.70;100.00;93690.50;5016192;28;20055;-79
2024/01/08 02:47:56;;;;;;;12.70;8.18;;;;;;;6.27;100.00;93796.75;5033689;28;20112;-79
2024/01/08 02:50:22;;;;;;;16.58;7.78;;;;;;;6.38;100.00;93793.75;5033779;28;20109;-80
2024/01/08 02:52:47;;;;;;;15.18;7.85;;;;;;;6.32;100.00;93810.69;5015353;28;20029;-79
2024/01/08 02:55:13;;;;;;;14.10;7.80;;;;;;;5.60;100.00;93691.38;5016905;28;20029;-79
2024/01/08 02:57:39;;;;;;;15.90;8.27;;;;;;;6.01;100.00;93746.25;5021932;28;20135;-80
2024/01/08 03:00:05;;;;;;;12.00;7.22;;;;;;;6.40;100.00;93815.31;5056498;28;20033;-79
2024/01/08 03:02:33;;;;;;;11.82;7.20;;;;;;;6.18;100.00;93784.19;5036516;28;20106;-80
2024/01/08 03:04:59;;;;;;;12.35;7.82;;;;;;;6.37;100.00;93807.19;5054168;28;20040;-80
2024/01/08 03:07:24;;;;;;;19.70;7.00;;;;;;;6.00;100.00;93774.41;5024180;28;20033;-80
2024/01/08 03:09:50;;;;;;;10.77;6.65;;;;;;;6.13;100.00;93794.78;5026955;28;20036;-80
2024/01/08 03:12:16;;;;;;;11.10;6.75;;;;;;;6.25;100.00;93818.13;5053996;28;20025;-82
2024/01/08 03:14:43;;;;;;;13.40;6.40;;;;;;;6.39;100.00;93828.78;5052293;28;20037;-82
2024/01/08 03:17:09;;;;;;;10.38;7.15;;;;;;;6.15;100.00;93811.09;5037785;28;20084;-84
2024/01/08 03:19:34;;;;;;;10.48;6.15;;;;;;;6.14;100.00;93804.25;5032847;28;20029;-83
2024/01/08 03:22:03;;;;;;;15.38;7.35;;;;;;;6.41;100.00;93842.41;5014405;28;20057;-82
2024/01/08 03:24:29;;;;;;;14.25;6.55;;;;;;;5.67;99.66;93735.75;5032789;28;20037;-83
2024/01/08 03:26:54;;;;;;;12.65;7.28;;;;;;;6.39;99.72;93845.34;5035544;28;20136;-83
2024/01/08 03:29:21;;;;;;;10.30;6.78;;;;;;;6.34;100.00;93844.59;5047767;28;20163;-83
2024/01/08 03:31:46;;;;;;;13.32;6.88;;;;;;;5.52;100.00;93720.13;5019767;28;20040;-83
2024/01/08 03:34:14;;;;;;;12.18;6.75;;;;;;;6.33;100.00;93856.97;5027968;28;20388;-80
2024/01/08 03:36:47;;;;;;;10.13;6.90;;;;;;;6.23;100.00;93845.78;5039392;28;20414;-80
2024/01/08 03:39:13;;;;;;;11.73;7.05;;;;;;;6.38;100.00;93849.06;5025265;28;20044;-79
2024/01/08 03:41:40;;;;;;;11.68;7.45;;;;;;;6.27;100.00;93866.00;5014156;28;20040;-79
2024/01/08 03:44:06;;;;;;;14.55;7.90;;;;;;;6.13;100.00;93829.00;5014113;28;20120;-79
2024/01/08 03:46:32;;;;;;;13.77;7.85;;;;;;;6.42;100.00;93870.31;5045190;28;20119;-79
2024/01/08 03:48:57;;;;;;;12.60;7.60;;;;;;;6.05;100.00;93819.09;5052420;28;20112;-79
2024/01/08 03:51:23;;;;;;;14.15;8.13;;;;;;;6.20;100.00;93831.31;5051723;28;20452;-79
2024/01/08 03:53:49;;;;;;;16.15;8.13;;;;;;;5.88;100.00;93791.63;5052205;28;20033;-79
2024/01/08 03:56:14;;;;;;;13.70;7.97;;;;;;;6.30;100.00;93865.44;5051586;28;20029;-79
2024/01/08 03:58:40;;;;;;;15.30;9.73;;;;;;;6.13;100.00;93842.19;5033993;28;20033;-79
2024/01/08 04:01:05;;;;;;;13.10;8.27;;;;;;;6.06;100.00;93814.59;5034236;28;20528;-80
2024/01/08 04:03:31;;;;;;;15.32;7.68;;;;;;;6.38;100.00;93869.31;5050743;28;20029;-80
2024/01/08 04:05:56;;;;;;;13.15;8.15;;;;;;;6.42;100.00;93888.75;5036120;28;20032;-79
2024/01/08 04:08:22;;;;;;;14.27;8.10;;;;;;;6.36;100.00;93895.16;5022485;28;20138;-80
2024/01/08 04:10:47;;;;;;;14.75;8.55;;;;;;;6.12;100.00;93887.97;5037949;28;20029;-79
2024/01/08 04:13:13;;;;;;;17.80;9.32;;;;;;;5.72;100.00;93835.69;5055703;28;20021;-80
2024/01/08 04:15:38;;;;;;;17.50;9.75;;;;;;;5.96;100.00;93891.78;5048753;28;20439;-80
2024/01/08 04:18:04;;;;;;;19.40;10.35;;;;;;;6.17;100.00;93914.28;5035788;28;20029;-80
2024/01/08 04:20:29;;;;;;;17.00;10.05;;;;;;;5.80;100.00;93859.53;5035693;28;20504;-79
2024/01/08 04:22:55;;;;;;;15.98;9.63;;;;;;;5.80;100.00;93853.47;5017748;28;20033;-82
2024/01/08 04:25:21;;;;;;;19.83;10.32;;;;;;;5.61;100.00;93832.34;5017167;28;20797;-81
2024/01/08 04:27:48;;;;;;;21.58;11.20;;;;;;;6.12;100.00;93916.16;5029843;28;20037;-82
2024/01/08 04:30:14;;;;;;;16.17;9.52;;;;;;;5.92;100.00;93911.84;5037138;28;20032;-82
2024/01/08 04:32:40;;;;;;;15.40;8.65;;;;;;;5.48;100.00;93854.00;5022188;28;20087;-82
2024/01/08 04:35:06;;;;;;;18.27;9.32;;;;;;;5.18;100.00;93814.78;5033863;28;20029;-82
2024/01/08 04:37:31;;;;;;;15.77;7.80;;;;;;;5.09;100.00;93827.69;5037043;28;20040;-82
2024/01/08 04:39:57;;;;;;;14.63;6.70;;;;;;;5.54;100.00;93925.75;5037387;28;20349;-82
2024/01/08 04:42:22;;;;;;;10.98;6.35;;;;;;;5.40;99.94;93931.63;5037043;28;20176;-81
2024/01/08 04:44:48;;;;;;;8.45;4.78;;;;;;;5.48;98.80;93966.28;5037885;28;20041;-81
2024/01/08 04:47:14;;;;;;;6.38;3.50;;;;;;;5.04;98.42;93917.81;5036875;28;20029;-80
2024/01/08 04:49:39;;;;;;;7.88;3.35;;;;;;;5.28;99.23;93967.16;5055298;28;20032;-80
2024/01/08 04:52:05;;;;;;;4.53;3.20;;;;;;;5.24;98.14;93982.69;5032309;28;20017;-81
2024/01/08 04:54:31;;;;;;;4.80;3.17;;;;;;;5.12;98.56;93966.41;5016886;28;20044;-79
2024/01/08 04:56:57;;;;;;;5.70;2.88;;;;;;;5.21;98.83;93987.69;5015298;28;20030;-79
2024/01/08 04:59:23;;;;;;;3.42;2.33;;;;;;;4.93;96.57;93984.63;5016503;28;20033;-80
2024/01/08 05:01:52;;;;;;;2.90;2.10;;;;;;;4.85;97.42;93963.34;5018853;28;20064;-80
2024/01/08 05:04:18;;;;;;;3.30;2.53;;;;;;;4.23;97.66;93883.16;5009776;28;20105;-80
2024/01/08 05:06:44;;;;;;;3.35;2.38;;;;;;;4.65;97.57;93954.47;5037961;28;20119;-80
2024/01/08 05:09:10;;;;;;;5.00;2.47;;;;;;;4.81;97.41;93978.06;5030659;28;20029;-80
2024/01/08 05:11:36;;;;;;;3.05;2.53;;;;;;;4.39;97.96;93931.16;5028935;28;20040;-80
2024/01/08 05:14:05;;;;;;;4.40;2.85;;;;;;;4.84;98.11;94019.56;5042418;28;20407;-80
2024/01/08 05:16:31;;;;;;;5.22;2.63;;;;;;;4.74;97.61;94016.94;5031565;28;20039;-80
2024/01/08 05:18:56;;;;;;;3.78;2.58;;;;;;;4.70;97.17;94016.72;5049091;28;20060;-80
2024/01/08 05:21:22;;;;;;;4.72;3.17;;;;;;;4.16;97.29;93953.47;5024482;28;20057;-81
2024/01/08 05:23:48;;;;;;;8.63;3.30;;;;;;;3.88;97.71;93925.94;5025664;28;20512;-82
2024/01/08 05:26:13;;;;;;;4.50;3.22;;;;;;;4.23;97.68;93990.75;5018995;28;20041;-83
2024/01/08 05:28:39;;;;;;;4.18;3.00;;;;;;;4.13;97.31;93994.13;5021180;28;20381;-81
2024/01/08 05:31:05;;;;;;;6.53;3.35;;;;;;;3.76;96.87;93931.44;4976233;28;20147;-80
2024/01/08 05:33:31;;;;;;;7.93;3.28;;;;;;;4.26;96.12;94035.63;4987402;28;20719;-80
2024/01/08 05:35:57;;;;;;;5.03;3.63;;;;;;;4.23;96.48;94022.22;4953602;28;20037;-80
2024/01/08 05:38:24;;;;;;;3.88;3.30;;;;;;;3.76;96.35;93969.97;4971523;28;21326;-80
2024/01/08 05:40:50;;;;;;;5.72;3.55;;;;;;;3.91;95.81;94011.97;4993883;28;20104;-80
2024/01/08 05:43:15;;;;;;;6.03;3.92;;;;;;;3.83;95.74;93994.09;4973084;28;20036;-80
2024/01/08 05:45:41;;;;;;;5.82;4.15;;;;;;;4.28;96.11;94065.00;5003128;28;20037;-79
2024/01/08 05:48:07;;;;;;;5.72;4.50;;;;;;;3.85;95.77;94024.28;4986898;28;20450;-79
2024/01/08 05:50:32;;;;;;;6.68;3.92;;;;;;;4.09;95.27;94073.66;4986891;28;20549;-79
2024/01/08 05:53:00;;;;;;;8.52;6.05;;;;;;;3.69;95.60;94024.50;4985944;28;20949;-79
2024/01/08 05:55:25;;;;;;;4.57;3.35;;;;;;;4.02;96.63;94073.09;5004706;28;20414;-79
2024/01/08 05:57:51;;;;;;;4.47;3.60;;;;;;;3.95;95.20;94067.31;5013807;28;20714;-79
2024/01/08 06:00:17;;;;;;;4.75;3.38;;;;;;;3.59;94.92;94045.44;4998331;28;20640;-81
2024/01/08 06:02:42;;;;;;;5.97;3.97;;;;;;;3.43;95.71;94029.66;5023172;28;20039;-81
2024/01/08 06:05:08;;;;;;;5.93;4.20;;;;;;;3.70;96.55;94049.69;5000505;28;20034;-81
2024/01/08 06:07:34;;;;;;;5.80;4.10;;;;;;;3.15;95.91;94001.25;5001121;28;20410;-81
2024/01/08 06:10:00;;;;;;;11.07;4.05;;;;;;;3.91;96.13;94108.22;5011992;28;20029;-81
2024/01/08 06:12:26;;;;;;;6.40;4.65;;;;;;;3.26;96.63;94015.97;5009529;28;20039;-81
2024/01/08 06:14:51;;;;;;;6.50;4.82;;;;;;;3.05;96.78;93998.59;5029230;28;20047;-82
2024/01/08 06:17:17;;;;;;;14.75;4.18;;;;;;;2.73;96.69;93951.56;5009073;28;20044;-82
2024/01/08 06:19:43;;;;;;;6.82;4.85;;;;;;;3.79;97.32;94104.00;5022922;28;20523;-82
2024/01/08 06:22:09;;;;;;;8.23;4.68;;;;;;;3.28;95.76;94045.31;4968668;28;20062;-83
2024/01/08 06:24:34;;;;;;;6.25;4.25;;;;;;;3.46;95.36;94070.31;4977129;28;20484;-82
2024/01/08 06:27:00;;;;;;;7.50;4.50;;;;;;;3.12;96.48;93988.69;4986198;28;20030;-83
2024/01/08 06:29:29;;;;;;;6.97;4.80;;;;;;;3.41;96.16;94060.59;4980010;28;20172;-83
2024/01/08 06:31:54;;;;;;;8.27;5.80;;;;;;;3.70;96.00;94110.78;4984473;28;20565;-80
2024/01/08 06:34:20;;;;;;;11.20;4.53;;;;;;;3.82;95.61;94153.28;4980787;28;20038;-80
2024/01/08 06:36:45;;;;;;;6.30;4.38;;;;;;;3.15;95.75;94064.13;4993283;28;20044;-81
2024/01/08 06:39:11;;;;;;;7.35;4.85;;;;;;;3.77;96.89;94161.16;5010032;28;20586;-81
2024/01/08 06:41:37;;;;;;;7.05;4.95;;;;;;;3.88;97.20;94157.53;5012702;28;20096;-80
2024/01/08 06:44:03;;;;;;;7.60;5.18;;;;;;;3.30;96.71;94090.41;5021521;28;20088;-81
2024/01/08 06:46:28;;;;;;;7.53;4.82;;;;;;;3.26;97.08;94088.56;5017800;28;20452;-80
2024/01/08 06:48:54;;;;;;;8.85;5.22;;;;;;;3.00;96.04;94053.56;5015176;28;20113;-80
2024/01/08 06:51:19;;;;;;;6.85;4.82;;;;;;;3.09;95.89;94091.34;5012471;28;20037;-81
2024/01/08 06:53:46;;;;;;;9.35;5.05;;;;;;;3.23;96.48;94120.50;5015193;28;20468;-81
2024/01/08 06:56:11;;;;;;;10.00;5.13;;;;;;;3.27;97.34;94139.94;5015698;28;20098;-81
2024/01/08 06:58:37;;;;;;;10.55;5.25;;;;;;;3.53;97.47;94209.78;5018969;28;20100;-81
2024/01/08 07:01:04;;;;;;;9.57;5.57;;;;;;;3.41;97.56;94217.06;5016308;28;20026;-81
2024/01/08 07:03:29;;;;;;;9.73;6.22;;;;;;;2.72;98.26;94091.34;5024422;28;20021;-81
2024/01/08 07:05:55;;;;;;;8.68;6.13;;;;;;;2.50;97.91;94085.44;5018136;28;20026;-81
2024/01/08 07:08:21;;;;;;;8.10;5.10;;;;;;;2.81;96.79;94144.06;5023061;28;20043;-80
2024/01/08 07:10:47;;;;;;;10.30;5.07;;;;;;;2.92;97.73;94166.66;5022982;28;20093;-82
2024/01/08 07:13:17;;;;;;;5.72;4.65;;;;;;;2.52;97.84;94096.41;4985637;28;20052;-82
2024/01/08 07:15:46;;;;;;;13.53;7.03;;;;;;;2.75;97.95;94131.97;4985821;28;20037;-82
2024/01/08 07:18:12;;;;;;;8.13;5.85;;;;;;;2.79;96.63;94149.53;4993462;28;20451;-83
2024/01/08 07:20:39;;;;;;;9.00;5.57;;;;;;;2.22;96.81;94074.19;4997367;28;20519;-83
2024/01/08 07:23:15;;;;;;;11.27;4.60;;;;;;;2.99;97.23;94217.00;5012242;28;20140;-82
2024/01/08 07:25:43;;;;;;;9.18;4.72;;;;;;;2.66;96.67;94158.59;5022003;28;20086;-81
2024/01/08 07:28:10;;;;;;;7.68;4.80;;;;;;;2.95;96.53;94198.38;5021275;28;20076;-83
2024/01/08 07:30:37;;;;;;;8.13;5.15;;;;;;;2.66;95.78;94195.25;5007721;28;20040;-82
2024/01/08 07:33:03;;;;;;;11.45;4.80;;;;;;;3.06;96.15;94246.38;5010750;28;20365;-82
2024/01/08 07:35:29;;;;;;;8.82;5.10;;;;;;;2.71;97.02;94186.63;5006181;28;20124;-82
2024/01/08 07:37:57;;;;;;;9.27;5.47;;;;;;;2.75;96.55;94186.94;5008069;28;20198;-82
2024/01/08 07:40:27;;;;;;;8.02;5.35;;;;;;;3.13;95.65;94275.78;5002745;28;20044;-82
2024/01/08 07:42:57;;;;;;;7.95;5.10;;;;;;;2.82;96.01;94232.03;5006802;28;20040;-82
2024/01/08 07:45:23;;;;;;;9.85;5.05;;;;;;;2.98;95.77;94270.41;5008204;28;20122;-82
2024/01/08 07:47:50;;;;;;;7.05;5.22;;;;;;;2.81;95.97;94267.91;5008277;28;20036;-81
2024/01/08 07:50:15;;;;;;;8.60;5.13;;;;;;;2.70;97.16;94237.41;5028196;28;20041;-82
2024/01/08 07:52:41;;;;;;;8.27;5.25;;;;;;;2.47;96.03;94242.94;5027038;28;20857;-80
2024/01/08 07:55:08;;;;;;;11.70;5.22;;;;;;;2.14;96.40;94202.81;5007306;28;20040;-82
2024/01/08 07:57:34;;;;;;;15.45;6.18;;;;;;;2.88;97.57;94299.94;4995061;28;20033;-81
2024/01/08 07:59:59;;;;;;;12.40;6.47;;;;;;;2.44;96.90;94231.13;5021371;28;20041;-82
2024/01/08 08:02:25;;;;;;;9.10;4.93;;;;;;;2.51;96.00;94244.84;5028846;28;20496;-83
2024/01/08 08:04:53;;;;;;;14.20;7.35;;;;;;;2.95;96.85;94312.81;5032797;28;20093;-86
2024/01/08 08:07:19;;;;;;;10.13;6.15;;;;;;;2.40;96.55;94219.56;5028561;28;20033;-84
2024/01/08 08:09:45;;;;;;;10.18;5.47;;;;;;;2.39;94.98;94266.91;5026561;28;20033;-81
2024/01/08 08:12:10;;;;;;;9.73;5.35;;;;;;;2.45;96.62;94263.31;4991061;28;20052;-83
2024/01/08 08:14:36;;;;;;;9.68;5.55;;;;;;;2.56;96.24;94267.63;5013341;28;20044;-82
2024/01/08 08:17:03;;;;;;;9.57;5.65;;;;;;;2.39;96.35;94241.53;5007159;28;20040;-82
2024/01/08 08:19:29;;;;;;;8.93;5.72;;;;;;;2.87;95.67;94348.09;5019596;28;20530;-82
2024/01/08 08:21:54;;;;;;;12.27;6.65;;;;;;;2.91;96.87;94330.84;5004631;28;20075;-82
2024/01/08 08:24:20;;;;;;;20.02;8.45;;;;;;;3.07;96.95;94350.91;5004240;28;20157;-82
2024/01/08 08:26:46;;;;;;;10.57;6.10;;;;;;;2.52;94.63;94277.78;5017548;28;20032;-82
2024/01/08 08:29:12;;;;;;;6.75;4.55;;;;;;;1.67;93.10;94214.78;5022183;28;20037;-85
2024/01/08 08:31:37;;;;;;;9.52;4.95;;;;;;;2.39;93.95;94327.91;5028089;28;20040;-83
2024/01/08 08:34:03;;;;;;;6.97;3.88;;;;;;;1.96;94.17;94286.00;5033478;28;20029;-84
2024/01/08 08:36:28;;;;;;;9.02;4.65;;;;;;;1.80;94.02;94285.00;5010485;28;20545;-83
2024/01/08 08:38:54;;;;;;;10.23;5.15;;;;;;;2.51;94.59;94361.81;5011345;28;20033;-83
2024/01/08 08:41:20;;;;;;;12.50;4.38;;;;;;;2.46;94.50;94353.88;5025034;28;20033;-83
2024/01/08 08:43:46;;;;;;;10.77;5.47;;;;;;;1.91;94.44;94252.72;5025038;28;20813;-83
2024/01/08 08:46:21;;;;;;;6.78;4.80;;;;;;;2.71;93.10;94377.75;5026774;28;20598;-83
2024/01/08 08:48:46;;;;;;;9.48;4.80;;;;;;;2.02;93.79;94253.66;5028824;28;20322;-83
2024/01/08 08:51:12;;;;;;;10.48;5.18;;;;;;;2.34;92.94;94317.38;5035079;28;20037;-82
2024/01/08 08:53:38;;;;;;;8.95;5.07;;;;;;;2.18;93.37;94285.00;5047677;28;20078;-84
2024/01/08 08:56:04;;;;;;;7.05;5.38;;;;;;;2.42;93.25;94309.09;5024032;28;20037;-84
2024/01/08 08:58:35;;;;;;;8.23;4.82;;;;;;;2.45;91.20;94350.47;5029077;28;20885;-83
2024/01/08 09:01:01;;;;;;;6.10;3.92;;;;;;;1.55;91.62;94197.38;5021509;28;20033;-83
2024/01/08 09:03:26;;;;;;;7.88;5.22;;;;;;;2.13;91.56;94258.78;5028885;28;20052;-84
2024/01/08 09:05:52;;;;;;;7.28;4.80;;;;;;;2.61;90.89;94349.63;5022075;28;20022;-84
2024/01/08 09:08:18;;;;;;;6.90;4.90;;;;;;;2.97;91.32;94395.38;5021311;28;20597;-84
2024/01/08 09:10:43;;;;;;;9.10;5.05;;;;;;;2.86;90.06;94374.53;5045539;28;20128;-83
2024/01/08 09:13:10;;;;;;;6.90;4.72;;;;;;;2.46;89.52;94325.88;5026343;28;20037;-85
2024/01/08 09:15:36;;;;;;;6.45;4.68;;;;;;;1.34;88.61;94163.38;5025505;28;20059;-84
2024/01/08 09:18:01;;;;;;;7.95;4.32;;;;;;;2.82;90.16;94383.91;5023696;28;20136;-84
2024/01/08 09:20:27;;;;;;;5.20;3.88;;;;;;;1.30;88.69;94198.88;5022748;28;20511;-84
2024/01/08 09:22:52;;;;;;;7.15;3.97;;;;;;;0.47;88.35;94046.50;5046802;28;20696;-84
2024/01/08 09:25:19;;;;;;;7.75;4.60;;;;;;;2.71;89.17;94383.00;5026810;28;20069;-85
2024/01/08 09:27:44;;;;;;;8.35;4.28;;;;;;;-0.07;88.64;93954.94;5043823;28;20460;-85
2024/01/08 09:30:14;;;;;;;6.90;4.40;;;;;;;2.90;87.61;94413.06;5048912;28;20037;-85
2024/01/08 09:32:39;;;;;;;8.00;4.75;;;;;;;1.48;88.11;94203.81;5051782;28;20025;-86
2024/01/08 09:35:05;;;;;;;6.90;4.38;;;;;;;2.33;88.12;94306.13;5043490;28;20317;-86
2024/01/08 09:37:31;;;;;;;6.70;3.30;;;;;;;2.40;85.76;94326.06;5040597;28;20787;-86
2024/01/08 09:39:56;;;;;;;7.00;4.90;;;;;;;1.76;87.03;94221.16;5022020;28;20044;-85
2024/01/08 09:42:26;;;;;;;8.88;4.50;;;;;;;2.74;85.98;94390.38;5035546;28;20068;-84
2024/01/08 09:44:54;;;;;;;8.93;4.90;;;;;;;2.33;86.41;94313.16;5040738;28;20029;-83
2024/01/08 09:47:20;;;;;;;7.32;4.60;;;;;;;2.29;84.71;94343.47;5019631;28;20542;-85
2024/01/08 09:50:01;;;;;;;6.80;4.30;;;;;;;2.58;85.82;94363.22;5028247;28;20067;-85
2024/01/08 09:52:27;;;;;;;8.68;4.63;;;;;;;2.54;85.54;94364.72;5015712;28;20499;-85
2024/01/08 09:54:53;;;;;;;6.70;4.57;;;;;;;2.42;85.11;94378.97;5034641;28;20078;-86
2024/01/08 09:57:18;;;;;;;7.80;3.80;;;;;;;2.29;84.14;94378.25;5034328;28;20350;-85
2024/01/08 09:59:44;;;;;;;7.30;3.83;;;;;;;1.94;85.48;94294.88;5030511;28;20059;-85
2024/01/08 10:02:16;;;;;;;5.45;4.07;;;;;;;2.45;84.81;94370.63;5037189;28;20033;-84
2024/01/08 10:04:41;;;;;;;8.50;5.00;;;;;;;2.68;84.18;94402.59;5023429;28;20060;-84
2024/01/08 10:07:12;;;;;;;6.22;4.10;;;;;;;2.52;82.99;94398.19;5025804;28;20064;-84
2024/01/08 10:09:38;;;;;;;5.40;3.67;;;;;;;2.16;81.28;94365.53;5026184;28;20029;-84
2024/01/08 10:12:07;;;;;;;7.43;3.95;;;;;;;1.86;83.29;94304.97;5045819;28;20035;-84
2024/01/08 10:14:33;;;;;;;5.00;3.30;;;;;;;2.60;85.01;94421.34;5022617;28;20036;-84
2024/01/08 10:16:59;;;;;;;8.68;4.38;;;;;;;2.23;82.83;94367.97;5032943;28;20024;-84
2024/01/08 10:19:25;;;;;;;9.18;3.55;;;;;;;1.50;81.68;94285.38;5027788;28;20095;-84
2024/01/08 10:22:12;;;;;;;4.35;3.47;;;;;;;2.70;83.32;94428.53;5025731;28;20067;-83
2024/01/08 10:24:39;;;;;;;8.15;3.67;;;;;;;2.12;81.78;94374.91;5019143;28;20033;-84
2024/01/08 10:27:09;;;;;;;7.05;4.15;;;;;;;2.51;82.91;94437.72;5025412;28;20029;-84
2024/01/08 10:29:36;;;;;;;6.18;3.17;;;;;;;1.97;81.73;94361.63;5020872;28;20136;-84
2024/01/08 10:32:26;;;;;;;5.43;3.35;;;;;;;2.05;82.64;94369.06;5029864;28;20068;-86
2024/01/08 10:35:18;;;;;;;9.93;4.45;;;;;;;0.87;83.80;94199.50;5000525;28;20175;-85
2024/01/08 10:37:47;;;;;;;5.20;3.13;;;;;;;2.36;83.46;94445.34;5021181;28;20044;-86
2024/01/08 10:40:16;;;;;;;13.10;4.45;;;;;;;2.37;84.55;94444.28;5017383;28;20073;-85
2024/01/08 10:42:44;;;;;;;8.77;4.53;;;;;;;1.90;87.03;94364.41;5018790;28;20585;-85
2024/01/08 10:45:09;;;;;;;6.97;4.28;;;;;;;0.93;84.52;94212.38;5027722;28;20022;-87
2024/01/08 10:47:38;;;;;;;4.95;3.50;;;;;;;1.86;83.78;94359.88;5022143;28;20041;-86
2024/01/08 10:50:07;;;;;;;7.75;4.20;;;;;;;2.46;85.04;94435.00;5032809;28;20030;-86
2024/01/08 10:52:59;;;;;;;6.32;4.40;;;;;;;1.36;84.25;94295.34;5041425;28;20087;-88
2024/01/08 10:55:35;;;;;;;7.93;4.45;;;;;;;2.23;83.21;94467.38;5031678;28;20038;-86
2024/01/08 10:58:03;;;;;;;6.90;4.07;;;;;;;2.04;84.20;94393.63;5018219;28;20187;-85
2024/01/08 11:00:30;;;;;;;6.82;4.13;;;;;;;2.14;84.13;94412.06;5024270;28;20053;-85
2024/01/08 11:02:56;;;;;;;6.78;4.18;;;;;;;-0.10;84.48;94058.88;5020959;28;20034;-86
2024/01/08 11:05:23;;;;;;;7.47;4.03;;;;;;;2.16;83.56;94420.47;5019122;28;20048;-86
2024/01/08 11:07:50;;;;;;;8.18;4.43;;;;;;;2.27;84.09;94461.47;5008622;28;20034;-86
2024/01/08 11:10:20;;;;;;;7.78;4.60;;;;;;;2.01;84.55;94390.69;5021712;28;20102;-86
2024/01/08 11:12:56;;;;;;;6.97;4.40;;;;;;;-0.83;83.10;93987.50;5018302;28;20057;-87
2024/01/08 11:15:27;;;;;;;6.05;4.22;;;;;;;-1.49;83.71;93876.19;5024142;28;20700;-87
2024/01/08 11:21:27;;;;;;;9.00;5.18;;;;;;;-1.57;84.62;93840.94;5039664;28;20088;-85
2024/01/08 11:23:55;;;;;;;8.70;5.47;;;;;;;0.91;84.25;94235.34;5035171;28;20041;-86
2024/01/08 11:26:26;;;;;;;6.78;5.13;;;;;;;-0.72;84.85;93985.88;5046003;28;20515;-86
2024/01/08 11:29:05;;;;;;;9.43;5.22;;;;;;;-0.13;83.78;94120.06;5024989;28;20231;-89
2024/01/08 11:31:48;;;;;;;7.10;4.55;;;;;;;2.22;84.58;94443.03;5028191;28;20141;-85
2024/01/08 11:34:52;;;;;;;10.60;5.40;;;;;;;2.15;84.83;94441.63;5022047;28;20056;-85
2024/01/08 11:37:35;;;;;;;8.88;4.82;;;;;;;2.24;84.04;94467.16;5013868;28;20037;-86